TimeCDT,TemperatureF,Dew PointF,Humidity,Sea Level PressureIn,VisibilityMPH,Wind Direction,Wind SpeedMPH,Gust SpeedMPH,PrecipitationIn,Events,Conditions,WindDirDegrees,DateUTC
12:56 AM,30.9,19.9,64,30.07,10.0,ENE,8.1,-,N/A,,Clear,70,2013-03-24 05:56:00
1:56 AM,30.9,21.0,67,30.05,10.0,ENE,10.4,-,N/A,,Clear,70,2013-03-24 06:56:00
2:56 AM,30.9,21.9,69,30.04,10.0,ENE,8.1,-,N/A,,Overcast,60,2013-03-24 07:56:00
3:29 AM,30.2,21.2,69,30.01,10.0,ENE,10.4,-,N/A,,Overcast,60,2013-03-24 08:29:00
3:56 AM,30.9,21.9,69,30.01,10.0,ENE,10.4,-,N/A,,Overcast,60,2013-03-24 08:56:00
4:56 AM,30.9,21.9,69,30.00,10.0,NE,3.5,-,N/A,,Overcast,50,2013-03-24 09:56:00
5:56 AM,30.0,21.9,72,29.97,10.0,NE,10.4,-,N/A,,Overcast,40,2013-03-24 10:56:00
6:27 AM,30.2,21.2,69,29.97,10.0,NE,8.1,-,N/A,,Overcast,40,2013-03-24 11:27:00
6:56 AM,30.0,21.9,72,29.97,10.0,NNE,11.5,-,N/A,,Overcast,30,2013-03-24 11:56:00
7:33 AM,30.2,23.0,75,29.96,10.0,NNE,8.1,-,N/A,,Overcast,30,2013-03-24 12:33:00
7:56 AM,30.9,23.0,72,29.97,10.0,NE,9.2,-,N/A,,Overcast,40,2013-03-24 12:56:00
8:56 AM,30.9,24.1,76,29.96,10.0,NE,12.7,-,N/A,,Overcast,40,2013-03-24 13:56:00
9:07 AM,30.2,24.8,80,29.95,10.0,NNE,11.5,-,N/A,,Overcast,30,2013-03-24 14:07:00
9:53 AM,30.2,24.8,80,29.94,4.0,NNE,13.8,-,0.00,Snow,Light Snow,30,2013-03-24 14:53:00
9:56 AM,30.0,25.0,82,29.95,3.0,NNE,11.5,-,0.00,Snow,Light Snow,30,2013-03-24 14:56:00
10:15 AM,30.2,26.6,86,29.93,1.8,NE,11.5,-,0.00,Snow,Light Snow,40,2013-03-24 15:15:00
10:31 AM,30.2,26.6,86,29.93,2.5,NNE,11.5,19.6,0.00,Snow,Light Snow,30,2013-03-24 15:31:00
10:35 AM,30.2,26.6,86,29.93,1.8,NNE,10.4,-,0.00,Snow,Light Snow,30,2013-03-24 15:35:00
10:46 AM,30.2,26.6,86,29.93,0.8,NE,11.5,-,0.00,Snow,Light Snow,40,2013-03-24 15:46:00
10:56 AM,30.9,27.0,85,29.93,0.8,NE,13.8,19.6,0.00,Snow,Light Snow,40,2013-03-24 15:56:00
11:03 AM,30.2,26.6,86,29.91,0.8,NNE,12.7,-,0.00,Snow,Light Snow,30,2013-03-24 16:03:00
11:10 AM,30.2,26.6,86,29.91,1.0,NE,13.8,20.7,0.00,Snow,Light Snow,40,2013-03-24 16:10:00
11:17 AM,30.2,26.6,86,29.91,0.8,NE,13.8,-,0.00,Snow,Light Snow,40,2013-03-24 16:17:00
11:25 AM,32.0,26.6,80,29.91,1.2,NE,12.7,-,0.00,Snow,Light Snow,40,2013-03-24 16:25:00
11:46 AM,30.2,26.6,86,29.91,2.5,NE,13.8,-,0.00,Snow,Light Snow,40,2013-03-24 16:46:00
11:56 AM,30.9,26.1,82,29.91,3.0,NE,17.3,24.2,0.00,Snow,Light Snow,40,2013-03-24 16:56:00
12:56 PM,32.0,25.0,75,29.91,10.0,NNE,8.1,20.7,0.00,,Overcast,30,2013-03-24 17:56:00
1:34 PM,32.0,24.8,75,29.88,1.8,NNE,11.5,24.2,0.00,Snow,Light Snow,30,2013-03-24 18:34:00
1:56 PM,33.1,26.1,75,29.88,1.2,NNE,15.0,-,0.00,Snow,Light Snow,30,2013-03-24 18:56:00
2:24 PM,33.8,26.6,75,29.86,2.0,NNE,13.8,-,0.00,Snow,Light Snow,30,2013-03-24 19:24:00
2:32 PM,33.8,26.6,75,29.86,3.0,NNE,11.5,-,0.00,Snow,Light Snow,20,2013-03-24 19:32:00
2:41 PM,33.8,24.8,70,29.86,5.0,NE,15.0,-,0.00,Snow,Light Snow,40,2013-03-24 19:41:00
2:56 PM,33.1,25.0,72,29.86,6.0,NNE,12.7,20.7,0.00,Snow,Light Snow,20,2013-03-24 19:56:00
3:43 PM,33.8,24.8,70,29.84,8.0,North,11.5,-,0.00,,Overcast,10,2013-03-24 20:43:00
3:56 PM,33.1,25.0,72,29.85,7.0,North,9.2,-,0.00,Snow,Light Snow,10,2013-03-24 20:56:00
4:05 PM,33.8,26.6,75,29.84,6.0,North,8.1,-,0.00,Snow,Light Snow,10,2013-03-24 21:05:00
4:14 PM,33.8,26.6,75,29.84,4.0,North,11.5,19.6,0.00,Snow,Light Snow,350,2013-03-24 21:14:00
4:41 PM,32.0,26.6,80,29.83,1.8,North,10.4,-,0.00,Snow,Light Snow,360,2013-03-24 21:41:00
4:53 PM,32.0,26.6,80,29.83,1.5,North,10.4,-,0.00,Snow,Light Snow,10,2013-03-24 21:53:00
4:56 PM,32.0,26.1,79,29.84,1.8,North,8.1,-,0.00,Snow,Light Snow,360,2013-03-24 21:56:00
5:41 PM,32.0,26.6,80,29.84,2.5,North,9.2,-,0.00,Snow,Light Snow,360,2013-03-24 22:41:00
5:56 PM,32.0,26.1,79,29.85,1.8,North,8.1,-,0.00,Snow,Light Snow,350,2013-03-24 22:56:00
6:12 PM,32.0,26.6,80,29.84,2.0,NNW,4.6,-,0.00,Snow,Light Snow,340,2013-03-24 23:12:00
6:22 PM,32.0,26.6,80,29.84,7.0,North,6.9,-,0.00,,Overcast,350,2013-03-24 23:22:00
6:56 PM,32.0,26.1,79,29.87,9.0,Variable,3.5,-,0.00,,Overcast,0,2013-03-24 23:56:00
7:56 PM,33.1,23.0,66,29.88,10.0,North,8.1,-,N/A,,Overcast,10,2013-03-25 00:56:00
8:56 PM,33.1,23.0,66,29.89,10.0,North,4.6,-,N/A,,Overcast,350,2013-03-25 01:56:00
9:56 PM,33.1,23.0,66,29.88,10.0,NNW,4.6,-,N/A,,Overcast,340,2013-03-25 02:56:00
10:56 PM,33.1,21.9,64,29.88,10.0,North,9.2,-,N/A,,Overcast,360,2013-03-25 03:56:00
11:56 PM,33.1,21.9,64,29.87,10.0,NNE,12.7,19.6,N/A,,Overcast,30,2013-03-25 04:56:00